• Join FlightAware (Why Join?)
  • Login
  • US Flag 
09:08PM EST


 

Airport Tracker/Info


-or-


 

Live Flight TrackerFlight Track Log ✈ CNS128 ✈ 26-Feb-2014 ✈ KPSM - KBOS

Flight Track Log - Related Links

Times and Time Zones

All times are in EST time to prevent confusion due to time zone crossing. See the CNS128 flight status page for this flight to view local times or setup timezone preferences in your user account.

Time Position Orientation Groundspeed Altitude Reporting Facility
EST Latitude Longitude Course Direction KTS MPH feet Rate Location/Type
03:51PM 43.0833 -70.8333 304° West 79 91 900  Level KA90
03:52PM 43.1000 -70.8667 304° West 139 160 3,300 1,760 Climbing KA90
03:54PM 43.0500 -70.8667 180° South 133 153 5,300 1,350 Climbing KA90
03:54PM 43.0167 -70.8833 200° South 169 194 6,000 350 Climbing KA90
03:56PM 42.9500 -70.9000 190° South 200 230 6,000 -198 Level KA90
03:56PM 42.9000 -70.8833 166° South 227 261 5,600 -476 Descending KA90
03:58PM 42.8589 -70.8161 130° Southeast 224 258 5,000 -227 Descending Boston Center
03:59PM 42.8044 -70.7917 162° South 220 253 5,100  Climbing Boston Center
04:00PM 42.7475 -70.8211 201° Southwest 217 250 5,000 -49 Descending Boston Center
04:01PM 42.6881 -70.8528 201° Southwest 213 245 5,000 49 Level Boston Center
04:02PM 42.6317 -70.8775 198° South 213 245 5,100 114 Climbing Boston Center
04:02PM 42.6000 -70.9000 208° Southwest 223 257 5,200 -58 Climbing KA90
04:03PM 42.5500 -70.9667 224° Southwest 216 249 5,000 -100 Descending KA90
04:04PM 42.5000 -71.0000 206° Southwest 233 268 5,000 -150 Level KA90
04:05PM 42.4500 -70.9333 135° Southeast 246 283 4,700 -750 Descending KA90
04:06PM 42.4000 -70.8833 144° Southeast 231 266 3,500 -1,100 Descending KA90
04:07PM 42.3500 -70.8667 166° South 205 236 2,500 -1,000 Descending KA90
04:08PM 42.3167 -70.9167 228° Southwest 160 184 1,500 -887 Descending KA90
04:09PM 42.3167 -70.9500 270° West 140 161 800 -522 Descending KA90
04:10PM 42.3333 -70.9833 304° West 95 109 500 -300 Descending KA90
04:13PM 42.3500 -71.0000 289° West  Level FlightAware Approximate